Terminal Aerodrome Forecast
Issued by NWS Grand Forks, ND

Home | Current Version | Previous Version | Text Only | Print | Product List | Glossary On
Versions: 1 2 3 4 5 6 7 8 9 10 11 12 13 14 15 16 17 18 19
414
FTUS43 KFGF 132330
TAFGFK
TAF
KGFK 132330Z 1400/1424 16019KT P6SM BKN040
     FM140500 15021G29KT P6SM OVC025
     FM140700 15022G28KT 2SM -SN OVC015
     FM141500 15018KT 2SM -SN OVC015=

USA.gov is the U.S. government's official web portal to all federal, state and local government web resources and services.